sensor_id;sensor_type;location;lat;lon;timestamp;P1;durP1;ratioP1;P2;durP2;ratioP2
14472;SDS011;7322;50.872;4.386;2022-12-10T00:02:05;6.27;;;4.70;;
14472;SDS011;7322;50.872;4.386;2022-12-10T00:04:47;5.53;;;4.60;;
14472;SDS011;7322;50.872;4.386;2022-12-10T00:07:14;5.47;;;4.90;;
14472;SDS011;7322;50.872;4.386;2022-12-10T00:12:42;5.47;;;4.43;;
14472;SDS011;7322;50.872;4.386;2022-12-10T00:17:51;5.50;;;4.47;;
14472;SDS011;7322;50.872;4.386;2022-12-10T00:30:17;5.40;;;4.60;;
14472;SDS011;7322;50.872;4.386;2022-12-10T00:32:44;5.33;;;4.50;;
14472;SDS011;7322;50.872;4.386;2022-12-10T00:35:17;5.97;;;5.00;;
14472;SDS011;7322;50.872;4.386;2022-12-10T00:37:44;5.43;;;4.93;;
14472;SDS011;7322;50.872;4.386;2022-12-10T00:40:11;5.77;;;4.87;;
14472;SDS011;7322;50.872;4.386;2022-12-10T00:42:39;6.03;;;4.83;;
14472;SDS011;7322;50.872;4.386;2022-12-10T00:45:06;6.60;;;5.30;;
14472;SDS011;7322;50.872;4.386;2022-12-10T00:47:35;7.20;;;4.90;;
14472;SDS011;7322;50.872;4.386;2022-12-10T00:50:02;6.13;;;4.83;;
14472;SDS011;7322;50.872;4.386;2022-12-10T00:52:36;7.40;;;5.07;;
14472;SDS011;7322;50.872;4.386;2022-12-10T01:03:02;6.50;;;5.40;;
14472;SDS011;7322;50.872;4.386;2022-12-10T01:05:43;5.40;;;4.90;;
14472;SDS011;7322;50.872;4.386;2022-12-10T01:11:21;5.20;;;4.70;;
14472;SDS011;7322;50.872;4.386;2022-12-10T01:14:09;6.27;;;5.27;;
14472;SDS011;7322;50.872;4.386;2022-12-10T01:19:49;5.37;;;4.70;;
14472;SDS011;7322;50.872;4.386;2022-12-10T01:22:17;6.43;;;5.40;;
14472;SDS011;7322;50.872;4.386;2022-12-10T01:24:50;6.27;;;4.93;;
14472;SDS011;7322;50.872;4.386;2022-12-10T01:27:20;7.30;;;5.50;;
14472;SDS011;7322;50.872;4.386;2022-12-10T01:29:47;6.37;;;5.43;;
14472;SDS011;7322;50.872;4.386;2022-12-10T01:40:14;6.07;;;5.27;;
14472;SDS011;7322;50.872;4.386;2022-12-10T01:50:36;6.67;;;5.27;;
14472;SDS011;7322;50.872;4.386;2022-12-10T01:55:59;6.63;;;5.37;;
14472;SDS011;7322;50.872;4.386;2022-12-10T01:58:29;7.00;;;5.23;;
14472;SDS011;7322;50.872;4.386;2022-12-10T02:01:02;6.00;;;5.40;;
14472;SDS011;7322;50.872;4.386;2022-12-10T02:03:47;6.30;;;5.40;;
14472;SDS011;7322;50.872;4.386;2022-12-10T02:06:27;5.53;;;4.73;;
14472;SDS011;7322;50.872;4.386;2022-12-10T02:09:18;6.73;;;5.50;;
14472;SDS011;7322;50.872;4.386;2022-12-10T02:11:58;6.53;;;5.60;;
14472;SDS011;7322;50.872;4.386;2022-12-10T02:14:45;5.93;;;5.30;;
14472;SDS011;7322;50.872;4.386;2022-12-10T02:17:24;5.60;;;5.10;;
14472;SDS011;7322;50.872;4.386;2022-12-10T02:19:58;5.73;;;4.93;;
14472;SDS011;7322;50.872;4.386;2022-12-10T02:25:29;5.80;;;5.00;;
14472;SDS011;7322;50.872;4.386;2022-12-10T02:30:55;5.57;;;5.03;;
14472;SDS011;7322;50.872;4.386;2022-12-10T02:33:31;5.97;;;5.33;;
14472;SDS011;7322;50.872;4.386;2022-12-10T02:36:03;7.60;;;5.70;;
14472;SDS011;7322;50.872;4.386;2022-12-10T02:38:32;7.13;;;6.00;;
14472;SDS011;7322;50.872;4.386;2022-12-10T02:41:08;6.47;;;5.13;;
14472;SDS011;7322;50.872;4.386;2022-12-10T02:43:48;6.10;;;5.30;;
14472;SDS011;7322;50.872;4.386;2022-12-10T02:46:23;5.97;;;5.37;;
14472;SDS011;7322;50.872;4.386;2022-12-10T02:48:59;7.67;;;5.80;;
14472;SDS011;7322;50.872;4.386;2022-12-10T02:51:38;6.63;;;5.50;;
14472;SDS011;7322;50.872;4.386;2022-12-10T03:04:09;6.47;;;5.13;;
14472;SDS011;7322;50.872;4.386;2022-12-10T03:12:47;6.07;;;5.40;;
14472;SDS011;7322;50.872;4.386;2022-12-10T03:15:23;5.97;;;5.30;;
14472;SDS011;7322;50.872;4.386;2022-12-10T03:17:52;6.50;;;5.70;;
14472;SDS011;7322;50.872;4.386;2022-12-10T03:23:01;6.40;;;5.80;;
14472;SDS011;7322;50.872;4.386;2022-12-10T03:25:43;7.20;;;5.90;;
14472;SDS011;7322;50.872;4.386;2022-12-10T03:28:16;5.80;;;5.20;;
14472;SDS011;7322;50.872;4.386;2022-12-10T03:33:41;6.27;;;5.60;;
14472;SDS011;7322;50.872;4.386;2022-12-10T03:36:20;7.57;;;5.80;;
14472;SDS011;7322;50.872;4.386;2022-12-10T03:38:49;6.17;;;5.57;;
14472;SDS011;7322;50.872;4.386;2022-12-10T03:41:22;6.50;;;5.40;;
14472;SDS011;7322;50.872;4.386;2022-12-10T03:46:43;6.77;;;5.87;;
14472;SDS011;7322;50.872;4.386;2022-12-10T03:49:12;6.57;;;5.70;;
14472;SDS011;7322;50.872;4.386;2022-12-10T03:51:41;6.27;;;5.60;;
14472;SDS011;7322;50.872;4.386;2022-12-10T03:54:10;6.70;;;5.63;;
14472;SDS011;7322;50.872;4.386;2022-12-10T03:56:42;6.37;;;5.47;;
14472;SDS011;7322;50.872;4.386;2022-12-10T03:59:23;7.77;;;6.27;;
14472;SDS011;7322;50.872;4.386;2022-12-10T04:01:52;6.93;;;5.70;;
14472;SDS011;7322;50.872;4.386;2022-12-10T04:04:19;6.70;;;5.80;;
14472;SDS011;7322;50.872;4.386;2022-12-10T04:06:48;7.07;;;5.67;;
14472;SDS011;7322;50.872;4.386;2022-12-10T04:09:29;7.13;;;5.83;;
14472;SDS011;7322;50.872;4.386;2022-12-10T04:12:02;6.93;;;5.57;;
14472;SDS011;7322;50.872;4.386;2022-12-10T04:17:21;6.20;;;5.60;;
14472;SDS011;7322;50.872;4.386;2022-12-10T04:19:57;6.40;;;5.70;;
14472;SDS011;7322;50.872;4.386;2022-12-10T04:28:37;6.70;;;5.47;;
14472;SDS011;7322;50.872;4.386;2022-12-10T04:31:11;8.03;;;6.60;;
14472;SDS011;7322;50.872;4.386;2022-12-10T04:33:38;6.77;;;6.03;;
14472;SDS011;7322;50.872;4.386;2022-12-10T04:39:16;7.47;;;6.20;;
14472;SDS011;7322;50.872;4.386;2022-12-10T04:41:49;6.63;;;5.77;;
14472;SDS011;7322;50.872;4.386;2022-12-10T04:44:17;7.13;;;6.10;;
14472;SDS011;7322;50.872;4.386;2022-12-10T04:46:45;7.83;;;6.03;;
14472;SDS011;7322;50.872;4.386;2022-12-10T04:49:15;7.03;;;6.33;;
14472;SDS011;7322;50.872;4.386;2022-12-10T04:51:56;6.53;;;5.67;;
14472;SDS011;7322;50.872;4.386;2022-12-10T04:54:40;6.73;;;6.03;;
14472;SDS011;7322;50.872;4.386;2022-12-10T05:02:37;7.43;;;6.27;;
14472;SDS011;7322;50.872;4.386;2022-12-10T05:05:06;7.23;;;6.13;;
14472;SDS011;7322;50.872;4.386;2022-12-10T05:07:35;7.03;;;6.10;;
14472;SDS011;7322;50.872;4.386;2022-12-10T05:10:05;7.90;;;6.50;;
14472;SDS011;7322;50.872;4.386;2022-12-10T05:12:33;8.17;;;6.13;;
14472;SDS011;7322;50.872;4.386;2022-12-10T05:15:00;7.20;;;5.90;;
14472;SDS011;7322;50.872;4.386;2022-12-10T05:17:27;7.40;;;6.40;;
14472;SDS011;7322;50.872;4.386;2022-12-10T05:23:16;7.63;;;6.57;;
14472;SDS011;7322;50.872;4.386;2022-12-10T05:26:01;8.73;;;6.67;;
14472;SDS011;7322;50.872;4.386;2022-12-10T05:28:32;6.87;;;6.00;;
14472;SDS011;7322;50.872;4.386;2022-12-10T05:31:03;7.53;;;6.43;;
14472;SDS011;7322;50.872;4.386;2022-12-10T05:33:32;7.13;;;6.17;;
14472;SDS011;7322;50.872;4.386;2022-12-10T05:36:06;7.53;;;6.67;;
14472;SDS011;7322;50.872;4.386;2022-12-10T05:38:37;7.90;;;6.97;;
14472;SDS011;7322;50.872;4.386;2022-12-10T05:41:09;6.97;;;6.27;;
14472;SDS011;7322;50.872;4.386;2022-12-10T05:43:40;7.60;;;6.10;;
14472;SDS011;7322;50.872;4.386;2022-12-10T05:46:10;7.27;;;6.50;;
14472;SDS011;7322;50.872;4.386;2022-12-10T05:48:40;8.93;;;6.80;;
14472;SDS011;7322;50.872;4.386;2022-12-10T05:51:08;7.57;;;6.20;;
14472;SDS011;7322;50.872;4.386;2022-12-10T05:53:52;12.30;;;9.57;;
14472;SDS011;7322;50.872;4.386;2022-12-10T05:59:23;7.80;;;6.40;;
14472;SDS011;7322;50.872;4.386;2022-12-10T06:01:51;7.87;;;7.00;;
14472;SDS011;7322;50.872;4.386;2022-12-10T06:06:59;7.80;;;6.37;;
14472;SDS011;7322;50.872;4.386;2022-12-10T06:12:25;8.30;;;6.67;;
14472;SDS011;7322;50.872;4.386;2022-12-10T06:17:28;7.00;;;6.30;;
14472;SDS011;7322;50.872;4.386;2022-12-10T06:22:47;7.57;;;6.60;;
14472;SDS011;7322;50.872;4.386;2022-12-10T06:27:48;8.03;;;6.20;;
14472;SDS011;7322;50.872;4.386;2022-12-10T06:36:24;8.83;;;7.23;;
14472;SDS011;7322;50.872;4.386;2022-12-10T06:38:54;7.47;;;6.40;;
14472;SDS011;7322;50.872;4.386;2022-12-10T06:44:10;8.73;;;7.30;;
14472;SDS011;7322;50.872;4.386;2022-12-10T06:46:40;8.53;;;6.33;;
14472;SDS011;7322;50.872;4.386;2022-12-10T06:49:25;7.80;;;6.40;;
14472;SDS011;7322;50.872;4.386;2022-12-10T06:51:52;7.87;;;5.57;;
14472;SDS011;7322;50.872;4.386;2022-12-10T06:54:19;6.40;;;5.30;;
14472;SDS011;7322;50.872;4.386;2022-12-10T06:56:47;7.03;;;5.67;;
14472;SDS011;7322;50.872;4.386;2022-12-10T06:59:14;5.90;;;5.20;;
14472;SDS011;7322;50.872;4.386;2022-12-10T07:01:51;6.13;;;5.37;;
14472;SDS011;7322;50.872;4.386;2022-12-10T07:07:10;6.13;;;5.40;;
14472;SDS011;7322;50.872;4.386;2022-12-10T07:12:37;5.63;;;5.00;;
14472;SDS011;7322;50.872;4.386;2022-12-10T07:17:44;5.77;;;5.17;;
14472;SDS011;7322;50.872;4.386;2022-12-10T07:20:12;5.73;;;5.13;;
14472;SDS011;7322;50.872;4.386;2022-12-10T07:25:29;5.80;;;5.20;;
14472;SDS011;7322;50.872;4.386;2022-12-10T07:27:57;6.77;;;5.40;;
14472;SDS011;7322;50.872;4.386;2022-12-10T07:32:54;5.93;;;5.27;;
14472;SDS011;7322;50.872;4.386;2022-12-10T07:35:29;6.63;;;5.53;;
14472;SDS011;7322;50.872;4.386;2022-12-10T07:40:26;5.30;;;4.80;;
14472;SDS011;7322;50.872;4.386;2022-12-10T07:52:08;5.93;;;5.33;;
14472;SDS011;7322;50.872;4.386;2022-12-10T08:03:39;6.07;;;5.47;;
14472;SDS011;7322;50.872;4.386;2022-12-10T08:06:13;5.87;;;5.27;;
14472;SDS011;7322;50.872;4.386;2022-12-10T08:11:46;6.77;;;5.70;;
14472;SDS011;7322;50.872;4.386;2022-12-10T08:22:58;6.93;;;6.07;;
14472;SDS011;7322;50.872;4.386;2022-12-10T08:25:34;6.00;;;5.40;;
14472;SDS011;7322;50.872;4.386;2022-12-10T08:30:44;5.73;;;4.97;;
14472;SDS011;7322;50.872;4.386;2022-12-10T08:33:13;6.03;;;5.43;;
14472;SDS011;7322;50.872;4.386;2022-12-10T08:35:44;6.00;;;5.20;;
14472;SDS011;7322;50.872;4.386;2022-12-10T08:38:12;7.33;;;6.13;;
14472;SDS011;7322;50.872;4.386;2022-12-10T08:40:51;6.63;;;5.53;;
14472;SDS011;7322;50.872;4.386;2022-12-10T08:43:18;7.13;;;6.00;;
14472;SDS011;7322;50.872;4.386;2022-12-10T08:46:04;6.37;;;5.73;;
14472;SDS011;7322;50.872;4.386;2022-12-10T08:51:19;7.27;;;6.27;;
14472;SDS011;7322;50.872;4.386;2022-12-10T08:54:05;7.07;;;5.77;;
14472;SDS011;7322;50.872;4.386;2022-12-10T08:56:43;6.97;;;5.63;;
14472;SDS011;7322;50.872;4.386;2022-12-10T08:59:15;7.07;;;5.33;;
14472;SDS011;7322;50.872;4.386;2022-12-10T09:01:42;6.80;;;5.80;;
14472;SDS011;7322;50.872;4.386;2022-12-10T09:04:21;7.00;;;6.10;;
14472;SDS011;7322;50.872;4.386;2022-12-10T09:06:50;6.70;;;5.80;;
14472;SDS011;7322;50.872;4.386;2022-12-10T09:12:29;6.90;;;5.83;;
14472;SDS011;7322;50.872;4.386;2022-12-10T09:15:03;7.03;;;6.03;;
14472;SDS011;7322;50.872;4.386;2022-12-10T09:29:56;7.13;;;5.87;;
14472;SDS011;7322;50.872;4.386;2022-12-10T09:32:25;7.27;;;6.00;;
14472;SDS011;7322;50.872;4.386;2022-12-10T09:34:59;6.80;;;5.90;;
14472;SDS011;7322;50.872;4.386;2022-12-10T09:37:27;6.90;;;6.13;;
14472;SDS011;7322;50.872;4.386;2022-12-10T09:42:53;7.27;;;6.07;;
14472;SDS011;7322;50.872;4.386;2022-12-10T09:45:45;6.70;;;5.93;;
14472;SDS011;7322;50.872;4.386;2022-12-10T09:48:21;7.57;;;6.60;;
14472;SDS011;7322;50.872;4.386;2022-12-10T09:53:33;7.07;;;5.87;;
14472;SDS011;7322;50.872;4.386;2022-12-10T10:01:57;7.97;;;6.20;;
14472;SDS011;7322;50.872;4.386;2022-12-10T10:04:48;7.03;;;5.43;;
14472;SDS011;7322;50.872;4.386;2022-12-10T10:07:21;7.43;;;6.13;;
14472;SDS011;7322;50.872;4.386;2022-12-10T10:09:55;6.63;;;5.50;;
14472;SDS011;7322;50.872;4.386;2022-12-10T10:12:43;7.67;;;5.83;;
14472;SDS011;7322;50.872;4.386;2022-12-10T10:18:14;7.37;;;5.93;;
14472;SDS011;7322;50.872;4.386;2022-12-10T10:20:48;7.50;;;6.03;;
14472;SDS011;7322;50.872;4.386;2022-12-10T10:23:17;7.50;;;6.57;;
14472;SDS011;7322;50.872;4.386;2022-12-10T10:31:57;7.50;;;6.17;;
14472;SDS011;7322;50.872;4.386;2022-12-10T10:34:59;7.53;;;6.27;;
14472;SDS011;7322;50.872;4.386;2022-12-10T10:37:29;7.13;;;5.93;;
14472;SDS011;7322;50.872;4.386;2022-12-10T10:43:40;6.93;;;5.50;;
14472;SDS011;7322;50.872;4.386;2022-12-10T10:46:28;7.30;;;6.20;;
14472;SDS011;7322;50.872;4.386;2022-12-10T10:49:12;6.80;;;5.93;;
14472;SDS011;7322;50.872;4.386;2022-12-10T10:57:19;7.90;;;6.00;;
14472;SDS011;7322;50.872;4.386;2022-12-10T10:59:51;6.83;;;5.50;;
14472;SDS011;7322;50.872;4.386;2022-12-10T11:05:04;7.10;;;6.07;;
14472;SDS011;7322;50.872;4.386;2022-12-10T11:07:37;6.80;;;6.10;;
14472;SDS011;7322;50.872;4.386;2022-12-10T11:10:15;6.93;;;5.70;;
14472;SDS011;7322;50.872;4.386;2022-12-10T11:12:45;6.80;;;5.57;;
14472;SDS011;7322;50.872;4.386;2022-12-10T11:15:34;6.50;;;5.70;;
14472;SDS011;7322;50.872;4.386;2022-12-10T11:18:22;7.23;;;5.77;;
14472;SDS011;7322;50.872;4.386;2022-12-10T11:21:05;7.77;;;6.60;;
14472;SDS011;7322;50.872;4.386;2022-12-10T11:27:05;11.97;;;9.63;;
14472;SDS011;7322;50.872;4.386;2022-12-10T11:32:37;11.73;;;9.53;;
14472;SDS011;7322;50.872;4.386;2022-12-10T11:35:18;12.30;;;9.80;;
14472;SDS011;7322;50.872;4.386;2022-12-10T11:37:53;12.80;;;9.40;;
14472;SDS011;7322;50.872;4.386;2022-12-10T11:40:33;12.27;;;9.77;;
14472;SDS011;7322;50.872;4.386;2022-12-10T11:43:14;12.93;;;9.80;;
14472;SDS011;7322;50.872;4.386;2022-12-10T11:45:52;13.80;;;10.27;;
14472;SDS011;7322;50.872;4.386;2022-12-10T11:48:29;14.20;;;10.20;;
14472;SDS011;7322;50.872;4.386;2022-12-10T11:51:08;13.13;;;10.03;;
14472;SDS011;7322;50.872;4.386;2022-12-10T11:53:50;15.80;;;10.00;;
14472;SDS011;7322;50.872;4.386;2022-12-10T11:56:28;12.90;;;10.23;;
14472;SDS011;7322;50.872;4.386;2022-12-10T11:59:05;12.57;;;9.60;;
14472;SDS011;7322;50.872;4.386;2022-12-10T12:01:54;13.20;;;10.17;;
14472;SDS011;7322;50.872;4.386;2022-12-10T12:04:34;12.17;;;9.47;;
14472;SDS011;7322;50.872;4.386;2022-12-10T12:10:26;13.10;;;9.53;;
14472;SDS011;7322;50.872;4.386;2022-12-10T12:13:09;11.73;;;10.07;;
14472;SDS011;7322;50.872;4.386;2022-12-10T12:15:43;12.77;;;9.30;;
14472;SDS011;7322;50.872;4.386;2022-12-10T12:18:17;13.13;;;10.27;;
14472;SDS011;7322;50.872;4.386;2022-12-10T12:20:48;12.13;;;9.37;;
14472;SDS011;7322;50.872;4.386;2022-12-10T12:23:22;12.53;;;9.77;;
14472;SDS011;7322;50.872;4.386;2022-12-10T12:25:55;13.63;;;9.50;;
14472;SDS011;7322;50.872;4.386;2022-12-10T12:28:25;12.97;;;9.80;;
14472;SDS011;7322;50.872;4.386;2022-12-10T12:31:01;12.07;;;9.77;;
14472;SDS011;7322;50.872;4.386;2022-12-10T12:33:35;11.97;;;9.53;;
14472;SDS011;7322;50.872;4.386;2022-12-10T12:38:43;11.60;;;9.37;;
14472;SDS011;7322;50.872;4.386;2022-12-10T12:41:16;11.43;;;9.10;;
14472;SDS011;7322;50.872;4.386;2022-12-10T12:43:55;13.67;;;9.40;;
14472;SDS011;7322;50.872;4.386;2022-12-10T12:46:32;10.37;;;8.43;;
14472;SDS011;7322;50.872;4.386;2022-12-10T12:49:06;10.47;;;8.63;;
14472;SDS011;7322;50.872;4.386;2022-12-10T12:51:42;11.50;;;9.03;;
14472;SDS011;7322;50.872;4.386;2022-12-10T12:54:20;12.43;;;9.43;;
14472;SDS011;7322;50.872;4.386;2022-12-10T12:56:58;12.40;;;9.20;;
14472;SDS011;7322;50.872;4.386;2022-12-10T12:59:37;10.97;;;8.30;;
14472;SDS011;7322;50.872;4.386;2022-12-10T13:02:21;11.07;;;9.30;;
14472;SDS011;7322;50.872;4.386;2022-12-10T13:04:57;10.97;;;9.00;;
14472;SDS011;7322;50.872;4.386;2022-12-10T13:07:30;11.17;;;9.10;;
14472;SDS011;7322;50.872;4.386;2022-12-10T13:15:51;11.07;;;8.93;;
14472;SDS011;7322;50.872;4.386;2022-12-10T13:18:24;10.97;;;8.60;;
14472;SDS011;7322;50.872;4.386;2022-12-10T13:21:24;11.33;;;8.97;;
14472;SDS011;7322;50.872;4.386;2022-12-10T13:24:05;10.27;;;8.37;;
14472;SDS011;7322;50.872;4.386;2022-12-10T13:26:35;11.80;;;9.20;;
14472;SDS011;7322;50.872;4.386;2022-12-10T13:29:22;12.97;;;9.03;;
14472;SDS011;7322;50.872;4.386;2022-12-10T13:31:56;11.13;;;8.97;;
14472;SDS011;7322;50.872;4.386;2022-12-10T13:34:35;10.40;;;8.70;;
14472;SDS011;7322;50.872;4.386;2022-12-10T13:37:06;11.50;;;8.63;;
14472;SDS011;7322;50.872;4.386;2022-12-10T13:39:53;10.73;;;8.77;;
14472;SDS011;7322;50.872;4.386;2022-12-10T13:42:31;10.47;;;8.83;;
14472;SDS011;7322;50.872;4.386;2022-12-10T13:45:24;9.67;;;8.00;;
14472;SDS011;7322;50.872;4.386;2022-12-10T13:48:16;9.27;;;8.07;;
14472;SDS011;7322;50.872;4.386;2022-12-10T13:50:55;10.87;;;8.30;;
14472;SDS011;7322;50.872;4.386;2022-12-10T13:53:46;9.90;;;8.23;;
14472;SDS011;7322;50.872;4.386;2022-12-10T13:56:23;9.80;;;8.00;;
14472;SDS011;7322;50.872;4.386;2022-12-10T13:58:56;10.73;;;8.60;;
14472;SDS011;7322;50.872;4.386;2022-12-10T14:01:37;10.37;;;8.20;;
14472;SDS011;7322;50.872;4.386;2022-12-10T14:07:01;11.40;;;8.70;;
14472;SDS011;7322;50.872;4.386;2022-12-10T14:09:29;12.47;;;8.97;;
14472;SDS011;7322;50.872;4.386;2022-12-10T14:12:01;11.63;;;8.53;;
14472;SDS011;7322;50.872;4.386;2022-12-10T14:14:33;10.07;;;8.47;;
14472;SDS011;7322;50.872;4.386;2022-12-10T14:17:11;11.07;;;8.13;;
14472;SDS011;7322;50.872;4.386;2022-12-10T14:19:42;11.47;;;8.70;;
14472;SDS011;7322;50.872;4.386;2022-12-10T14:22:15;10.13;;;7.93;;
14472;SDS011;7322;50.872;4.386;2022-12-10T14:24:46;10.40;;;8.20;;
14472;SDS011;7322;50.872;4.386;2022-12-10T14:27:16;10.47;;;8.40;;
14472;SDS011;7322;50.872;4.386;2022-12-10T14:32:48;10.43;;;8.00;;
14472;SDS011;7322;50.872;4.386;2022-12-10T14:35:20;10.87;;;8.00;;
14472;SDS011;7322;50.872;4.386;2022-12-10T14:37:50;9.30;;;8.07;;
14472;SDS011;7322;50.872;4.386;2022-12-10T14:40:22;10.80;;;7.80;;
14472;SDS011;7322;50.872;4.386;2022-12-10T14:43:06;9.63;;;7.47;;
14472;SDS011;7322;50.872;4.386;2022-12-10T14:45:38;10.97;;;7.97;;
14472;SDS011;7322;50.872;4.386;2022-12-10T14:48:19;8.97;;;7.27;;
14472;SDS011;7322;50.872;4.386;2022-12-10T14:50:47;11.97;;;7.57;;
14472;SDS011;7322;50.872;4.386;2022-12-10T14:53:17;8.90;;;7.20;;
14472;SDS011;7322;50.872;4.386;2022-12-10T15:01:36;8.13;;;6.90;;
14472;SDS011;7322;50.872;4.386;2022-12-10T15:04:12;9.03;;;7.40;;
14472;SDS011;7322;50.872;4.386;2022-12-10T15:06:44;8.27;;;6.77;;
14472;SDS011;7322;50.872;4.386;2022-12-10T15:17:41;7.70;;;6.20;;
14472;SDS011;7322;50.872;4.386;2022-12-10T15:20:21;7.63;;;6.03;;
14472;SDS011;7322;50.872;4.386;2022-12-10T15:22:51;7.40;;;6.20;;
14472;SDS011;7322;50.872;4.386;2022-12-10T15:25:23;7.50;;;6.17;;
14472;SDS011;7322;50.872;4.386;2022-12-10T15:27:59;7.47;;;6.20;;
14472;SDS011;7322;50.872;4.386;2022-12-10T15:30:34;7.30;;;6.00;;
14472;SDS011;7322;50.872;4.386;2022-12-10T15:33:20;7.23;;;6.00;;
14472;SDS011;7322;50.872;4.386;2022-12-10T15:35:58;7.40;;;5.80;;
14472;SDS011;7322;50.872;4.386;2022-12-10T15:38:32;7.30;;;6.10;;
14472;SDS011;7322;50.872;4.386;2022-12-10T15:47:45;6.93;;;6.20;;
14472;SDS011;7322;50.872;4.386;2022-12-10T15:55:56;6.57;;;5.57;;
14472;SDS011;7322;50.872;4.386;2022-12-10T16:01:12;6.70;;;5.93;;
14472;SDS011;7322;50.872;4.386;2022-12-10T16:03:51;7.77;;;6.23;;
14472;SDS011;7322;50.872;4.386;2022-12-10T16:06:25;6.80;;;5.80;;
14472;SDS011;7322;50.872;4.386;2022-12-10T16:09:02;5.70;;;5.10;;
14472;SDS011;7322;50.872;4.386;2022-12-10T16:11:29;6.70;;;5.73;;
14472;SDS011;7322;50.872;4.386;2022-12-10T16:14:01;6.77;;;5.70;;
14472;SDS011;7322;50.872;4.386;2022-12-10T16:16:35;6.47;;;5.80;;
14472;SDS011;7322;50.872;4.386;2022-12-10T16:19:15;6.47;;;5.70;;
14472;SDS011;7322;50.872;4.386;2022-12-10T16:21:58;6.70;;;5.80;;
14472;SDS011;7322;50.872;4.386;2022-12-10T16:27:28;7.57;;;6.13;;
14472;SDS011;7322;50.872;4.386;2022-12-10T16:36:11;6.60;;;5.73;;
14472;SDS011;7322;50.872;4.386;2022-12-10T16:41:26;7.07;;;5.77;;
14472;SDS011;7322;50.872;4.386;2022-12-10T16:46:28;6.33;;;5.53;;
14472;SDS011;7322;50.872;4.386;2022-12-10T16:48:55;7.37;;;6.13;;
14472;SDS011;7322;50.872;4.386;2022-12-10T16:51:25;6.83;;;5.87;;
14472;SDS011;7322;50.872;4.386;2022-12-10T16:54:05;6.70;;;5.63;;
14472;SDS011;7322;50.872;4.386;2022-12-10T16:56:39;7.37;;;6.00;;
14472;SDS011;7322;50.872;4.386;2022-12-10T16:59:09;8.13;;;6.47;;
14472;SDS011;7322;50.872;4.386;2022-12-10T17:01:43;6.40;;;5.30;;
14472;SDS011;7322;50.872;4.386;2022-12-10T17:07:00;6.87;;;6.17;;
14472;SDS011;7322;50.872;4.386;2022-12-10T17:16:25;7.83;;;5.73;;
14472;SDS011;7322;50.872;4.386;2022-12-10T17:19:00;8.03;;;6.30;;
14472;SDS011;7322;50.872;4.386;2022-12-10T17:24:32;7.57;;;6.13;;
14472;SDS011;7322;50.872;4.386;2022-12-10T17:27:18;7.53;;;5.83;;
14472;SDS011;7322;50.872;4.386;2022-12-10T17:41:16;7.83;;;6.17;;
14472;SDS011;7322;50.872;4.386;2022-12-10T17:53:08;8.03;;;5.90;;
14472;SDS011;7322;50.872;4.386;2022-12-10T17:55:47;7.47;;;6.20;;
14472;SDS011;7322;50.872;4.386;2022-12-10T18:07:41;7.30;;;5.80;;
14472;SDS011;7322;50.872;4.386;2022-12-10T18:13:00;7.53;;;5.87;;
14472;SDS011;7322;50.872;4.386;2022-12-10T18:18:56;6.43;;;5.20;;
14472;SDS011;7322;50.872;4.386;2022-12-10T18:21:25;7.00;;;5.67;;
14472;SDS011;7322;50.872;4.386;2022-12-10T18:23:59;7.43;;;6.10;;
14472;SDS011;7322;50.872;4.386;2022-12-10T18:26:34;8.33;;;6.20;;
14472;SDS011;7322;50.872;4.386;2022-12-10T18:31:57;7.73;;;6.20;;
14472;SDS011;7322;50.872;4.386;2022-12-10T18:34:25;6.50;;;5.60;;
14472;SDS011;7322;50.872;4.386;2022-12-10T18:36:54;7.07;;;5.70;;
14472;SDS011;7322;50.872;4.386;2022-12-10T18:39:30;7.47;;;5.80;;
14472;SDS011;7322;50.872;4.386;2022-12-10T18:44:37;8.07;;;5.97;;
14472;SDS011;7322;50.872;4.386;2022-12-10T18:47:08;7.93;;;5.37;;
14472;SDS011;7322;50.872;4.386;2022-12-10T18:49:37;6.80;;;5.37;;
14472;SDS011;7322;50.872;4.386;2022-12-10T18:52:05;6.97;;;5.53;;
14472;SDS011;7322;50.872;4.386;2022-12-10T18:54:37;6.40;;;5.50;;
14472;SDS011;7322;50.872;4.386;2022-12-10T18:57:06;8.00;;;6.00;;
14472;SDS011;7322;50.872;4.386;2022-12-10T18:59:41;7.37;;;5.57;;
14472;SDS011;7322;50.872;4.386;2022-12-10T19:02:08;6.43;;;5.33;;
14472;SDS011;7322;50.872;4.386;2022-12-10T19:04:36;6.80;;;5.90;;
14472;SDS011;7322;50.872;4.386;2022-12-10T19:07:05;7.40;;;5.50;;
14472;SDS011;7322;50.872;4.386;2022-12-10T19:09:32;7.93;;;5.27;;
14472;SDS011;7322;50.872;4.386;2022-12-10T19:12:02;7.27;;;5.23;;
14472;SDS011;7322;50.872;4.386;2022-12-10T19:14:30;7.37;;;5.23;;
14472;SDS011;7322;50.872;4.386;2022-12-10T19:16:59;6.13;;;5.23;;
14472;SDS011;7322;50.872;4.386;2022-12-10T19:19:29;6.53;;;5.50;;
14472;SDS011;7322;50.872;4.386;2022-12-10T19:21:57;5.80;;;5.10;;
14472;SDS011;7322;50.872;4.386;2022-12-10T19:24:24;7.07;;;5.23;;
14472;SDS011;7322;50.872;4.386;2022-12-10T19:27:08;8.67;;;5.90;;
14472;SDS011;7322;50.872;4.386;2022-12-10T19:29:37;6.17;;;5.17;;
14472;SDS011;7322;50.872;4.386;2022-12-10T19:32:13;6.20;;;5.10;;
14472;SDS011;7322;50.872;4.386;2022-12-10T19:34:40;6.37;;;5.27;;
14472;SDS011;7322;50.872;4.386;2022-12-10T19:37:08;7.43;;;5.73;;
14472;SDS011;7322;50.872;4.386;2022-12-10T19:39:35;6.77;;;5.13;;
14472;SDS011;7322;50.872;4.386;2022-12-10T19:42:03;7.97;;;4.77;;
14472;SDS011;7322;50.872;4.386;2022-12-10T19:44:30;5.90;;;5.30;;
14472;SDS011;7322;50.872;4.386;2022-12-10T19:47:05;6.13;;;4.67;;
14472;SDS011;7322;50.872;4.386;2022-12-10T19:49:38;5.70;;;5.03;;
14472;SDS011;7322;50.872;4.386;2022-12-10T19:52:16;6.13;;;5.47;;
14472;SDS011;7322;50.872;4.386;2022-12-10T19:54:49;7.20;;;5.27;;
14472;SDS011;7322;50.872;4.386;2022-12-10T19:57:26;5.97;;;4.50;;
14472;SDS011;7322;50.872;4.386;2022-12-10T19:59:52;6.40;;;5.23;;
14472;SDS011;7322;50.872;4.386;2022-12-10T20:02:20;6.87;;;5.20;;
14472;SDS011;7322;50.872;4.386;2022-12-10T20:04:49;6.27;;;4.87;;
14472;SDS011;7322;50.872;4.386;2022-12-10T20:07:24;7.87;;;5.40;;
14472;SDS011;7322;50.872;4.386;2022-12-10T20:09:56;6.37;;;5.13;;
14472;SDS011;7322;50.872;4.386;2022-12-10T20:12:23;7.27;;;5.67;;
14472;SDS011;7322;50.872;4.386;2022-12-10T20:14:52;6.33;;;4.90;;
14472;SDS011;7322;50.872;4.386;2022-12-10T20:17:28;6.30;;;4.80;;
14472;SDS011;7322;50.872;4.386;2022-12-10T20:24:59;6.13;;;4.90;;
14472;SDS011;7322;50.872;4.386;2022-12-10T20:27:28;7.07;;;4.80;;
14472;SDS011;7322;50.872;4.386;2022-12-10T20:32:31;5.87;;;5.00;;
14472;SDS011;7322;50.872;4.386;2022-12-10T20:35:02;6.37;;;4.93;;
14472;SDS011;7322;50.872;4.386;2022-12-10T20:37:33;5.50;;;4.50;;
14472;SDS011;7322;50.872;4.386;2022-12-10T20:40:01;5.90;;;4.70;;
14472;SDS011;7322;50.872;4.386;2022-12-10T20:42:29;5.83;;;4.80;;
14472;SDS011;7322;50.872;4.386;2022-12-10T20:44:56;6.53;;;5.00;;
14472;SDS011;7322;50.872;4.386;2022-12-10T20:47:37;6.60;;;5.13;;
14472;SDS011;7322;50.872;4.386;2022-12-10T20:50:19;6.30;;;4.80;;
14472;SDS011;7322;50.872;4.386;2022-12-10T20:52:49;6.13;;;4.40;;
14472;SDS011;7322;50.872;4.386;2022-12-10T20:55:27;5.20;;;4.40;;
14472;SDS011;7322;50.872;4.386;2022-12-10T20:57:58;5.13;;;4.40;;
14472;SDS011;7322;50.872;4.386;2022-12-10T21:00:25;4.70;;;4.10;;
14472;SDS011;7322;50.872;4.386;2022-12-10T21:11:24;4.83;;;3.97;;
14472;SDS011;7322;50.872;4.386;2022-12-10T21:14:03;4.57;;;4.13;;
14472;SDS011;7322;50.872;4.386;2022-12-10T21:16:38;4.17;;;3.60;;
14472;SDS011;7322;50.872;4.386;2022-12-10T21:22:04;5.03;;;4.27;;
14472;SDS011;7322;50.872;4.386;2022-12-10T21:24:32;4.57;;;3.97;;
14472;SDS011;7322;50.872;4.386;2022-12-10T21:27:09;4.87;;;3.87;;
14472;SDS011;7322;50.872;4.386;2022-12-10T21:29:37;4.37;;;3.60;;
14472;SDS011;7322;50.872;4.386;2022-12-10T21:43:56;4.87;;;3.97;;
14472;SDS011;7322;50.872;4.386;2022-12-10T21:46:26;5.83;;;3.60;;
14472;SDS011;7322;50.872;4.386;2022-12-10T21:48:57;4.30;;;3.63;;
14472;SDS011;7322;50.872;4.386;2022-12-10T21:51:24;4.10;;;3.60;;
14472;SDS011;7322;50.872;4.386;2022-12-10T21:53:53;4.07;;;3.67;;